sensor_id;sensor_type;location;lat;lon;timestamp;temperature;humidity
28530;DHT22;15737;49.760;6.632;2023-04-06T00:01:39;1.40;92.90
28530;DHT22;15737;49.760;6.632;2023-04-06T00:04:05;1.40;92.90
28530;DHT22;15737;49.760;6.632;2023-04-06T00:06:30;1.40;92.90
28530;DHT22;15737;49.760;6.632;2023-04-06T00:08:57;1.40;93.00
28530;DHT22;15737;49.760;6.632;2023-04-06T00:11:23;1.50;93.50
28530;DHT22;15737;49.760;6.632;2023-04-06T00:13:48;1.70;93.10
28530;DHT22;15737;49.760;6.632;2023-04-06T00:16:14;1.80;93.10
28530;DHT22;15737;49.760;6.632;2023-04-06T00:18:40;1.70;93.30
28530;DHT22;15737;49.760;6.632;2023-04-06T00:21:05;1.60;93.60
28530;DHT22;15737;49.760;6.632;2023-04-06T00:23:31;1.40;94.10
28530;DHT22;15737;49.760;6.632;2023-04-06T00:25:57;1.30;94.60
28530;DHT22;15737;49.760;6.632;2023-04-06T00:28:22;1.30;95.10
28530;DHT22;15737;49.760;6.632;2023-04-06T00:30:50;1.30;95.40
28530;DHT22;15737;49.760;6.632;2023-04-06T00:33:18;1.10;95.60
28530;DHT22;15737;49.760;6.632;2023-04-06T00:35:44;1.00;96.30
28530;DHT22;15737;49.760;6.632;2023-04-06T00:38:09;0.90;96.90
28530;DHT22;15737;49.760;6.632;2023-04-06T00:40:35;0.90;97.40
28530;DHT22;15737;49.760;6.632;2023-04-06T00:43:01;0.80;98.40
28530;DHT22;15737;49.760;6.632;2023-04-06T00:45:27;0.80;99.10
28530;DHT22;15737;49.760;6.632;2023-04-06T00:47:53;0.80;99.50
28530;DHT22;15737;49.760;6.632;2023-04-06T00:50:19;0.70;99.90
28530;DHT22;15737;49.760;6.632;2023-04-06T00:52:44;0.70;99.90
28530;DHT22;15737;49.760;6.632;2023-04-06T00:55:10;0.60;99.90
28530;DHT22;15737;49.760;6.632;2023-04-06T00:57:36;0.60;99.90
28530;DHT22;15737;49.760;6.632;2023-04-06T01:00:02;0.60;99.90
28530;DHT22;15737;49.760;6.632;2023-04-06T01:02:28;0.60;99.90
28530;DHT22;15737;49.760;6.632;2023-04-06T01:04:53;0.60;99.90
28530;DHT22;15737;49.760;6.632;2023-04-06T01:07:20;0.50;99.90
28530;DHT22;15737;49.760;6.632;2023-04-06T01:09:45;0.50;99.90
28530;DHT22;15737;49.760;6.632;2023-04-06T01:12:11;0.60;99.90
28530;DHT22;15737;49.760;6.632;2023-04-06T01:14:36;0.50;99.90
28530;DHT22;15737;49.760;6.632;2023-04-06T01:17:02;0.60;99.90
28530;DHT22;15737;49.760;6.632;2023-04-06T01:19:28;0.50;99.90
28530;DHT22;15737;49.760;6.632;2023-04-06T01:21:54;0.50;99.90
28530;DHT22;15737;49.760;6.632;2023-04-06T01:24:20;0.50;99.90
28530;DHT22;15737;49.760;6.632;2023-04-06T01:26:46;0.60;99.90
28530;DHT22;15737;49.760;6.632;2023-04-06T01:29:12;0.50;99.90
28530;DHT22;15737;49.760;6.632;2023-04-06T01:31:38;0.50;99.90
28530;DHT22;15737;49.760;6.632;2023-04-06T01:34:04;0.40;99.90
28530;DHT22;15737;49.760;6.632;2023-04-06T01:36:30;0.40;99.90
28530;DHT22;15737;49.760;6.632;2023-04-06T01:38:56;0.40;99.90
28530;DHT22;15737;49.760;6.632;2023-04-06T01:41:21;0.40;99.90
28530;DHT22;15737;49.760;6.632;2023-04-06T01:43:48;0.30;99.90
28530;DHT22;15737;49.760;6.632;2023-04-06T01:46:15;0.30;99.90
28530;DHT22;15737;49.760;6.632;2023-04-06T01:48:40;0.30;99.90
28530;DHT22;15737;49.760;6.632;2023-04-06T01:51:06;0.20;99.90
28530;DHT22;15737;49.760;6.632;2023-04-06T01:53:32;0.20;99.90
28530;DHT22;15737;49.760;6.632;2023-04-06T01:55:57;0.10;99.90
28530;DHT22;15737;49.760;6.632;2023-04-06T01:58:23;0.10;99.90
28530;DHT22;15737;49.760;6.632;2023-04-06T02:00:48;0.10;99.90
28530;DHT22;15737;49.760;6.632;2023-04-06T02:03:14;0.10;99.90
28530;DHT22;15737;49.760;6.632;2023-04-06T02:05:40;0.10;99.90
28530;DHT22;15737;49.760;6.632;2023-04-06T02:08:06;0.10;99.90
28530;DHT22;15737;49.760;6.632;2023-04-06T02:10:32;0.10;99.90
28530;DHT22;15737;49.760;6.632;2023-04-06T02:12:58;0.20;99.90
28530;DHT22;15737;49.760;6.632;2023-04-06T02:15:24;0.20;99.90
28530;DHT22;15737;49.760;6.632;2023-04-06T02:17:49;0.20;99.90
28530;DHT22;15737;49.760;6.632;2023-04-06T02:20:15;0.20;99.90
28530;DHT22;15737;49.760;6.632;2023-04-06T02:22:41;0.10;99.90
28530;DHT22;15737;49.760;6.632;2023-04-06T02:25:06;0.10;99.90
28530;DHT22;15737;49.760;6.632;2023-04-06T02:27:33;0.00;99.90
28530;DHT22;15737;49.760;6.632;2023-04-06T02:29:58;0.00;99.90
28530;DHT22;15737;49.760;6.632;2023-04-06T02:32:24;-0.10;99.90
28530;DHT22;15737;49.760;6.632;2023-04-06T02:34:50;-0.10;99.90
28530;DHT22;15737;49.760;6.632;2023-04-06T02:37:15;-0.10;99.90
28530;DHT22;15737;49.760;6.632;2023-04-06T02:39:41;-0.10;99.90
28530;DHT22;15737;49.760;6.632;2023-04-06T02:42:07;-0.10;99.90
28530;DHT22;15737;49.760;6.632;2023-04-06T02:44:34;-0.10;99.90
28530;DHT22;15737;49.760;6.632;2023-04-06T02:46:59;-0.10;99.90
28530;DHT22;15737;49.760;6.632;2023-04-06T02:49:25;-0.20;99.90
28530;DHT22;15737;49.760;6.632;2023-04-06T02:51:50;-0.30;99.90
28530;DHT22;15737;49.760;6.632;2023-04-06T02:54:16;-0.30;99.90
28530;DHT22;15737;49.760;6.632;2023-04-06T02:56:41;-0.30;99.90
28530;DHT22;15737;49.760;6.632;2023-04-06T02:59:07;-0.30;99.90
28530;DHT22;15737;49.760;6.632;2023-04-06T03:01:32;-0.30;99.90
28530;DHT22;15737;49.760;6.632;2023-04-06T03:03:58;-0.30;99.90
28530;DHT22;15737;49.760;6.632;2023-04-06T03:06:23;-0.40;99.90
28530;DHT22;15737;49.760;6.632;2023-04-06T03:08:49;-0.40;99.90
28530;DHT22;15737;49.760;6.632;2023-04-06T03:11:15;-0.40;99.90
28530;DHT22;15737;49.760;6.632;2023-04-06T03:13:41;-0.50;99.90
28530;DHT22;15737;49.760;6.632;2023-04-06T03:16:06;-0.50;99.90
28530;DHT22;15737;49.760;6.632;2023-04-06T03:18:32;-0.50;99.90
28530;DHT22;15737;49.760;6.632;2023-04-06T03:20:58;-0.50;99.90
28530;DHT22;15737;49.760;6.632;2023-04-06T03:23:25;-0.50;99.90
28530;DHT22;15737;49.760;6.632;2023-04-06T03:25:51;-0.50;99.90
28530;DHT22;15737;49.760;6.632;2023-04-06T03:28:16;-0.50;99.90
28530;DHT22;15737;49.760;6.632;2023-04-06T03:30:42;-0.50;99.90
28530;DHT22;15737;49.760;6.632;2023-04-06T03:33:07;-0.50;99.90
28530;DHT22;15737;49.760;6.632;2023-04-06T03:35:33;-0.50;99.90
28530;DHT22;15737;49.760;6.632;2023-04-06T03:37:59;-0.60;99.90
28530;DHT22;15737;49.760;6.632;2023-04-06T03:40:25;-0.60;99.90
28530;DHT22;15737;49.760;6.632;2023-04-06T03:42:50;-0.60;99.90
28530;DHT22;15737;49.760;6.632;2023-04-06T03:45:16;-0.60;99.90
28530;DHT22;15737;49.760;6.632;2023-04-06T03:47:42;-0.60;99.90
28530;DHT22;15737;49.760;6.632;2023-04-06T03:50:08;-0.60;99.90
28530;DHT22;15737;49.760;6.632;2023-04-06T03:52:35;-0.70;99.90
28530;DHT22;15737;49.760;6.632;2023-04-06T03:55:01;-0.70;99.90
28530;DHT22;15737;49.760;6.632;2023-04-06T03:57:26;-0.70;99.90
28530;DHT22;15737;49.760;6.632;2023-04-06T03:59:55;-0.70;99.90
28530;DHT22;15737;49.760;6.632;2023-04-06T04:02:20;-0.80;99.90
28530;DHT22;15737;49.760;6.632;2023-04-06T04:04:46;-0.80;99.90
28530;DHT22;15737;49.760;6.632;2023-04-06T04:07:11;-0.70;99.90
28530;DHT22;15737;49.760;6.632;2023-04-06T04:09:37;-0.70;99.90
28530;DHT22;15737;49.760;6.632;2023-04-06T04:12:03;-0.80;99.90
28530;DHT22;15737;49.760;6.632;2023-04-06T04:14:28;-0.80;99.90
28530;DHT22;15737;49.760;6.632;2023-04-06T04:16:54;-0.80;99.90
28530;DHT22;15737;49.760;6.632;2023-04-06T04:19:20;-0.80;99.90
28530;DHT22;15737;49.760;6.632;2023-04-06T04:21:46;-0.80;99.90
28530;DHT22;15737;49.760;6.632;2023-04-06T04:24:12;-0.80;99.90
28530;DHT22;15737;49.760;6.632;2023-04-06T04:26:39;-0.80;99.90
28530;DHT22;15737;49.760;6.632;2023-04-06T04:29:05;-0.70;99.90
28530;DHT22;15737;49.760;6.632;2023-04-06T04:31:31;-0.70;99.90
28530;DHT22;15737;49.760;6.632;2023-04-06T04:33:59;-0.70;99.90
28530;DHT22;15737;49.760;6.632;2023-04-06T04:36:24;-0.70;99.90
28530;DHT22;15737;49.760;6.632;2023-04-06T04:38:51;-0.70;99.90
28530;DHT22;15737;49.760;6.632;2023-04-06T04:41:16;-0.70;99.90
28530;DHT22;15737;49.760;6.632;2023-04-06T04:43:42;-0.70;99.90
28530;DHT22;15737;49.760;6.632;2023-04-06T04:46:07;-0.70;99.90
28530;DHT22;15737;49.760;6.632;2023-04-06T04:48:33;-0.60;99.90
28530;DHT22;15737;49.760;6.632;2023-04-06T04:50:58;-0.50;99.90
28530;DHT22;15737;49.760;6.632;2023-04-06T04:53:24;-0.40;99.90
28530;DHT22;15737;49.760;6.632;2023-04-06T04:55:50;-0.30;99.90
28530;DHT22;15737;49.760;6.632;2023-04-06T04:58:16;-0.30;99.90
28530;DHT22;15737;49.760;6.632;2023-04-06T05:00:44;-0.30;99.90
28530;DHT22;15737;49.760;6.632;2023-04-06T05:03:16;-0.20;99.90
28530;DHT22;15737;49.760;6.632;2023-04-06T05:05:43;-0.10;99.90
28530;DHT22;15737;49.760;6.632;2023-04-06T05:08:09;0.00;99.90
28530;DHT22;15737;49.760;6.632;2023-04-06T05:10:34;0.00;99.90
28530;DHT22;15737;49.760;6.632;2023-04-06T05:13:00;0.30;99.90
28530;DHT22;15737;49.760;6.632;2023-04-06T05:15:26;0.40;99.90
28530;DHT22;15737;49.760;6.632;2023-04-06T05:17:51;0.70;99.90
28530;DHT22;15737;49.760;6.632;2023-04-06T05:20:17;1.40;99.90
28530;DHT22;15737;49.760;6.632;2023-04-06T05:22:43;2.40;99.90
28530;DHT22;15737;49.760;6.632;2023-04-06T05:25:08;3.40;99.90
28530;DHT22;15737;49.760;6.632;2023-04-06T05:27:34;4.30;99.90
28530;DHT22;15737;49.760;6.632;2023-04-06T05:29:59;5.10;99.90
28530;DHT22;15737;49.760;6.632;2023-04-06T05:32:26;5.80;99.90
28530;DHT22;15737;49.760;6.632;2023-04-06T05:34:52;6.50;99.90
28530;DHT22;15737;49.760;6.632;2023-04-06T05:37:17;7.30;99.90
28530;DHT22;15737;49.760;6.632;2023-04-06T05:39:43;8.10;99.90
28530;DHT22;15737;49.760;6.632;2023-04-06T05:42:09;8.90;99.90
28530;DHT22;15737;49.760;6.632;2023-04-06T05:44:37;9.70;99.90
28530;DHT22;15737;49.760;6.632;2023-04-06T05:47:02;10.50;99.90
28530;DHT22;15737;49.760;6.632;2023-04-06T05:49:28;10.70;98.30
28530;DHT22;15737;49.760;6.632;2023-04-06T05:51:54;9.90;98.20
28530;DHT22;15737;49.760;6.632;2023-04-06T05:54:20;8.50;99.90
28530;DHT22;15737;49.760;6.632;2023-04-06T05:56:45;7.60;99.90
28530;DHT22;15737;49.760;6.632;2023-04-06T05:59:11;6.90;99.90
28530;DHT22;15737;49.760;6.632;2023-04-06T06:01:37;6.40;99.90
28530;DHT22;15737;49.760;6.632;2023-04-06T06:04:02;6.20;99.90
28530;DHT22;15737;49.760;6.632;2023-04-06T06:06:28;6.40;99.90
28530;DHT22;15737;49.760;6.632;2023-04-06T06:08:55;6.60;99.90
28530;DHT22;15737;49.760;6.632;2023-04-06T06:11:24;6.50;99.90
28530;DHT22;15737;49.760;6.632;2023-04-06T06:13:50;6.90;99.90
28530;DHT22;15737;49.760;6.632;2023-04-06T06:16:16;7.10;99.90
28530;DHT22;15737;49.760;6.632;2023-04-06T06:18:42;6.90;99.90
28530;DHT22;15737;49.760;6.632;2023-04-06T06:21:07;6.80;99.90
28530;DHT22;15737;49.760;6.632;2023-04-06T06:23:33;7.10;99.90
28530;DHT22;15737;49.760;6.632;2023-04-06T06:25:59;7.20;99.90
28530;DHT22;15737;49.760;6.632;2023-04-06T06:28:26;7.30;99.90
28530;DHT22;15737;49.760;6.632;2023-04-06T06:30:52;7.30;99.90
28530;DHT22;15737;49.760;6.632;2023-04-06T06:33:17;7.50;99.90
28530;DHT22;15737;49.760;6.632;2023-04-06T06:35:43;7.70;99.90
28530;DHT22;15737;49.760;6.632;2023-04-06T06:38:08;7.80;99.90
28530;DHT22;15737;49.760;6.632;2023-04-06T06:40:34;7.60;99.90
28530;DHT22;15737;49.760;6.632;2023-04-06T06:43:00;7.10;99.90
28530;DHT22;15737;49.760;6.632;2023-04-06T06:45:25;6.80;99.90
28530;DHT22;15737;49.760;6.632;2023-04-06T06:47:51;7.40;99.90
28530;DHT22;15737;49.760;6.632;2023-04-06T06:50:16;10.80;99.20
28530;DHT22;15737;49.760;6.632;2023-04-06T06:52:43;12.80;94.20
28530;DHT22;15737;49.760;6.632;2023-04-06T06:55:09;13.00;91.40
28530;DHT22;15737;49.760;6.632;2023-04-06T06:57:36;13.60;90.00
28530;DHT22;15737;49.760;6.632;2023-04-06T07:00:01;14.40;85.60
28530;DHT22;15737;49.760;6.632;2023-04-06T07:02:27;15.70;80.30
28530;DHT22;15737;49.760;6.632;2023-04-06T07:04:52;17.30;70.90
28530;DHT22;15737;49.760;6.632;2023-04-06T07:07:18;15.80;68.10
28530;DHT22;15737;49.760;6.632;2023-04-06T07:09:44;13.30;72.10
28530;DHT22;15737;49.760;6.632;2023-04-06T07:12:09;11.40;78.60
28530;DHT22;15737;49.760;6.632;2023-04-06T07:14:35;10.50;81.50
28530;DHT22;15737;49.760;6.632;2023-04-06T07:17:02;10.30;85.30
28530;DHT22;15737;49.760;6.632;2023-04-06T07:19:27;10.70;85.00
28530;DHT22;15737;49.760;6.632;2023-04-06T07:21:53;11.10;84.60
28530;DHT22;15737;49.760;6.632;2023-04-06T07:24:18;11.60;82.80
28530;DHT22;15737;49.760;6.632;2023-04-06T07:26:44;11.90;80.60
28530;DHT22;15737;49.760;6.632;2023-04-06T07:29:09;12.20;80.40
28530;DHT22;15737;49.760;6.632;2023-04-06T07:31:35;12.00;78.70
28530;DHT22;15737;49.760;6.632;2023-04-06T07:34:01;11.90;79.70
28530;DHT22;15737;49.760;6.632;2023-04-06T07:36:27;11.80;80.00
28530;DHT22;15737;49.760;6.632;2023-04-06T07:38:52;12.10;80.00
28530;DHT22;15737;49.760;6.632;2023-04-06T07:41:18;12.00;80.30
28530;DHT22;15737;49.760;6.632;2023-04-06T07:43:43;12.10;79.80
28530;DHT22;15737;49.760;6.632;2023-04-06T07:46:09;12.40;78.90
28530;DHT22;15737;49.760;6.632;2023-04-06T07:48:34;14.20;76.60
28530;DHT22;15737;49.760;6.632;2023-04-06T07:51:03;15.80;71.90
28530;DHT22;15737;49.760;6.632;2023-04-06T07:53:29;16.10;70.00
28530;DHT22;15737;49.760;6.632;2023-04-06T07:55:55;15.80;68.00
28530;DHT22;15737;49.760;6.632;2023-04-06T07:58:21;15.40;68.60
28530;DHT22;15737;49.760;6.632;2023-04-06T08:00:47;14.90;68.60
28530;DHT22;15737;49.760;6.632;2023-04-06T08:03:12;14.90;67.40
28530;DHT22;15737;49.760;6.632;2023-04-06T08:05:38;14.90;66.80
28530;DHT22;15737;49.760;6.632;2023-04-06T08:08:04;14.10;67.60
28530;DHT22;15737;49.760;6.632;2023-04-06T08:10:29;13.70;68.20
28530;DHT22;15737;49.760;6.632;2023-04-06T08:12:55;14.60;66.40
28530;DHT22;15737;49.760;6.632;2023-04-06T08:15:20;16.70;62.60
28530;DHT22;15737;49.760;6.632;2023-04-06T08:17:46;18.90;57.50
28530;DHT22;15737;49.760;6.632;2023-04-06T08:20:11;19.30;54.20
28530;DHT22;15737;49.760;6.632;2023-04-06T08:22:37;18.20;54.80
28530;DHT22;15737;49.760;6.632;2023-04-06T08:25:03;17.20;55.50
28530;DHT22;15737;49.760;6.632;2023-04-06T08:27:29;16.90;56.00
28530;DHT22;15737;49.760;6.632;2023-04-06T08:29:54;17.30;55.20
28530;DHT22;15737;49.760;6.632;2023-04-06T08:32:20;17.60;54.40
28530;DHT22;15737;49.760;6.632;2023-04-06T08:34:46;17.50;53.80
28530;DHT22;15737;49.760;6.632;2023-04-06T08:37:12;16.80;54.20
28530;DHT22;15737;49.760;6.632;2023-04-06T08:39:37;16.20;54.70
28530;DHT22;15737;49.760;6.632;2023-04-06T08:42:03;15.80;54.90
28530;DHT22;15737;49.760;6.632;2023-04-06T08:44:32;15.40;55.00
28530;DHT22;15737;49.760;6.632;2023-04-06T08:46:59;14.40;55.80
28530;DHT22;15737;49.760;6.632;2023-04-06T08:49:25;14.30;56.80
28530;DHT22;15737;49.760;6.632;2023-04-06T08:51:51;14.20;56.90
28530;DHT22;15737;49.760;6.632;2023-04-06T08:54:17;14.00;55.80
28530;DHT22;15737;49.760;6.632;2023-04-06T08:56:43;13.50;56.30
28530;DHT22;15737;49.760;6.632;2023-04-06T08:59:09;13.80;57.50
28530;DHT22;15737;49.760;6.632;2023-04-06T09:01:39;14.40;57.10
28530;DHT22;15737;49.760;6.632;2023-04-06T09:04:08;14.70;56.70
28530;DHT22;15737;49.760;6.632;2023-04-06T09:06:36;15.20;56.30
28530;DHT22;15737;49.760;6.632;2023-04-06T09:09:05;16.00;55.20
28530;DHT22;15737;49.760;6.632;2023-04-06T09:11:43;16.60;54.60
28530;DHT22;15737;49.760;6.632;2023-04-06T09:14:08;15.70;51.90
28530;DHT22;15737;49.760;6.632;2023-04-06T09:16:45;14.10;53.40
28530;DHT22;15737;49.760;6.632;2023-04-06T09:19:11;13.50;55.90
28530;DHT22;15737;49.760;6.632;2023-04-06T09:21:38;13.30;55.70
28530;DHT22;15737;49.760;6.632;2023-04-06T09:24:07;13.40;56.10
28530;DHT22;15737;49.760;6.632;2023-04-06T09:26:44;13.00;55.00
28530;DHT22;15737;49.760;6.632;2023-04-06T09:29:10;12.70;55.60
28530;DHT22;15737;49.760;6.632;2023-04-06T09:31:47;12.70;56.20
28530;DHT22;15737;49.760;6.632;2023-04-06T09:34:21;12.60;56.20
28530;DHT22;15737;49.760;6.632;2023-04-06T09:36:48;12.80;56.30
28530;DHT22;15737;49.760;6.632;2023-04-06T09:39:13;13.20;55.90
28530;DHT22;15737;49.760;6.632;2023-04-06T09:41:39;13.60;55.80
28530;DHT22;15737;49.760;6.632;2023-04-06T09:44:11;14.10;55.40
28530;DHT22;15737;49.760;6.632;2023-04-06T09:46:44;15.00;54.70
28530;DHT22;15737;49.760;6.632;2023-04-06T09:49:11;16.60;53.20
28530;DHT22;15737;49.760;6.632;2023-04-06T09:51:39;16.90;51.30
28530;DHT22;15737;49.760;6.632;2023-04-06T09:54:06;16.90;52.10
28530;DHT22;15737;49.760;6.632;2023-04-06T09:56:53;16.80;52.00
28530;DHT22;15737;49.760;6.632;2023-04-06T10:02:45;16.40;53.00
28530;DHT22;15737;49.760;6.632;2023-04-06T10:07:59;14.70;53.70
28530;DHT22;15737;49.760;6.632;2023-04-06T10:10:27;14.20;54.60
28530;DHT22;15737;49.760;6.632;2023-04-06T10:12:54;14.40;54.70
28530;DHT22;15737;49.760;6.632;2023-04-06T10:15:21;14.50;54.50
28530;DHT22;15737;49.760;6.632;2023-04-06T10:17:47;14.50;54.40
28530;DHT22;15737;49.760;6.632;2023-04-06T10:20:21;14.30;54.70
28530;DHT22;15737;49.760;6.632;2023-04-06T10:23:30;13.80;55.00
28530;DHT22;15737;49.760;6.632;2023-04-06T10:25:59;13.40;55.70
28530;DHT22;15737;49.760;6.632;2023-04-06T10:28:33;13.60;56.20
28530;DHT22;15737;49.760;6.632;2023-04-06T10:31:04;14.20;55.70
28530;DHT22;15737;49.760;6.632;2023-04-06T10:33:30;14.30;54.70
28530;DHT22;15737;49.760;6.632;2023-04-06T10:35:55;14.10;54.80
28530;DHT22;15737;49.760;6.632;2023-04-06T10:41:06;14.50;55.20
28530;DHT22;15737;49.760;6.632;2023-04-06T10:43:37;14.90;54.50
28530;DHT22;15737;49.760;6.632;2023-04-06T10:46:04;14.80;54.50
28530;DHT22;15737;49.760;6.632;2023-04-06T10:48:45;14.90;54.60
28530;DHT22;15737;49.760;6.632;2023-04-06T10:51:13;15.00;53.90
28530;DHT22;15737;49.760;6.632;2023-04-06T10:53:41;14.70;54.00
28530;DHT22;15737;49.760;6.632;2023-04-06T10:56:13;14.40;54.80
28530;DHT22;15737;49.760;6.632;2023-04-06T10:58:46;15.00;54.80
28530;DHT22;15737;49.760;6.632;2023-04-06T11:01:15;15.70;54.60
28530;DHT22;15737;49.760;6.632;2023-04-06T11:03:58;16.00;54.00
28530;DHT22;15737;49.760;6.632;2023-04-06T11:06:40;16.20;53.80
28530;DHT22;15737;49.760;6.632;2023-04-06T11:09:05;15.80;53.70
28530;DHT22;15737;49.760;6.632;2023-04-06T11:11:31;15.20;54.20
28530;DHT22;15737;49.760;6.632;2023-04-06T11:13:58;14.70;55.10
28530;DHT22;15737;49.760;6.632;2023-04-06T11:16:31;14.60;56.00
28530;DHT22;15737;49.760;6.632;2023-04-06T11:19:00;15.00;55.90
28530;DHT22;15737;49.760;6.632;2023-04-06T11:21:43;15.10;55.30
28530;DHT22;15737;49.760;6.632;2023-04-06T11:26:40;15.10;55.70
28530;DHT22;15737;49.760;6.632;2023-04-06T11:29:06;14.90;55.60
28530;DHT22;15737;49.760;6.632;2023-04-06T11:31:47;14.80;55.30
28530;DHT22;15737;49.760;6.632;2023-04-06T11:34:20;14.70;55.50
28530;DHT22;15737;49.760;6.632;2023-04-06T11:36:48;14.40;55.80
28530;DHT22;15737;49.760;6.632;2023-04-06T11:42:02;13.90;56.30
28530;DHT22;15737;49.760;6.632;2023-04-06T11:44:39;13.50;57.20
28530;DHT22;15737;49.760;6.632;2023-04-06T11:47:09;13.50;57.50
28530;DHT22;15737;49.760;6.632;2023-04-06T11:49:40;13.30;57.50
28530;DHT22;15737;49.760;6.632;2023-04-06T11:52:22;13.60;57.90
28530;DHT22;15737;49.760;6.632;2023-04-06T11:54:50;13.60;58.00
28530;DHT22;15737;49.760;6.632;2023-04-06T11:57:31;13.60;58.10
28530;DHT22;15737;49.760;6.632;2023-04-06T11:59:56;13.50;58.30
28530;DHT22;15737;49.760;6.632;2023-04-06T12:02:22;13.40;58.70
28530;DHT22;15737;49.760;6.632;2023-04-06T12:04:48;13.30;58.70
28530;DHT22;15737;49.760;6.632;2023-04-06T12:07:13;13.30;59.10
28530;DHT22;15737;49.760;6.632;2023-04-06T12:09:39;13.00;59.70
28530;DHT22;15737;49.760;6.632;2023-04-06T12:12:05;12.80;61.10
28530;DHT22;15737;49.760;6.632;2023-04-06T12:14:30;13.00;61.00
28530;DHT22;15737;49.760;6.632;2023-04-06T12:16:57;13.30;60.80
28530;DHT22;15737;49.760;6.632;2023-04-06T12:19:23;13.30;60.90
28530;DHT22;15737;49.760;6.632;2023-04-06T12:21:54;13.40;60.80
28530;DHT22;15737;49.760;6.632;2023-04-06T12:24:21;13.60;60.60
28530;DHT22;15737;49.760;6.632;2023-04-06T12:26:46;13.60;60.90
28530;DHT22;15737;49.760;6.632;2023-04-06T12:29:12;13.60;61.30
28530;DHT22;15737;49.760;6.632;2023-04-06T12:31:39;13.50;61.40
28530;DHT22;15737;49.760;6.632;2023-04-06T12:34:06;13.30;61.80
28530;DHT22;15737;49.760;6.632;2023-04-06T12:36:32;13.10;61.70
28530;DHT22;15737;49.760;6.632;2023-04-06T12:38:58;13.00;62.20
28530;DHT22;15737;49.760;6.632;2023-04-06T12:41:23;12.80;62.60
28530;DHT22;15737;49.760;6.632;2023-04-06T12:43:50;12.50;63.10
28530;DHT22;15737;49.760;6.632;2023-04-06T12:46:16;12.30;64.30
28530;DHT22;15737;49.760;6.632;2023-04-06T12:48:41;11.80;66.20
28530;DHT22;15737;49.760;6.632;2023-04-06T12:51:07;11.30;70.70
28530;DHT22;15737;49.760;6.632;2023-04-06T12:53:37;11.30;73.20
28530;DHT22;15737;49.760;6.632;2023-04-06T12:56:11;11.40;73.60
28530;DHT22;15737;49.760;6.632;2023-04-06T12:58:37;11.30;74.40
28530;DHT22;15737;49.760;6.632;2023-04-06T13:01:06;11.20;74.30
28530;DHT22;15737;49.760;6.632;2023-04-06T13:03:32;11.20;76.90
28530;DHT22;15737;49.760;6.632;2023-04-06T13:05:59;11.30;78.40
28530;DHT22;15737;49.760;6.632;2023-04-06T13:08:25;11.20;81.20
28530;DHT22;15737;49.760;6.632;2023-04-06T13:10:51;10.90;82.70
28530;DHT22;15737;49.760;6.632;2023-04-06T13:13:28;10.70;84.00
28530;DHT22;15737;49.760;6.632;2023-04-06T13:15:58;10.50;87.10
28530;DHT22;15737;49.760;6.632;2023-04-06T13:18:24;10.30;87.50
28530;DHT22;15737;49.760;6.632;2023-04-06T13:20:50;10.20;90.10
28530;DHT22;15737;49.760;6.632;2023-04-06T13:23:16;10.00;91.80
28530;DHT22;15737;49.760;6.632;2023-04-06T13:25:41;9.80;93.30
28530;DHT22;15737;49.760;6.632;2023-04-06T13:28:08;9.90;94.70
28530;DHT22;15737;49.760;6.632;2023-04-06T13:30:33;10.20;94.40
28530;DHT22;15737;49.760;6.632;2023-04-06T13:32:59;10.70;93.60
28530;DHT22;15737;49.760;6.632;2023-04-06T13:35:25;10.90;93.60
28530;DHT22;15737;49.760;6.632;2023-04-06T13:37:50;11.30;93.90
28530;DHT22;15737;49.760;6.632;2023-04-06T13:40:17;11.60;92.20
28530;DHT22;15737;49.760;6.632;2023-04-06T13:42:43;11.60;91.90
28530;DHT22;15737;49.760;6.632;2023-04-06T13:45:10;11.50;91.90
28530;DHT22;15737;49.760;6.632;2023-04-06T13:47:36;11.50;92.70
28530;DHT22;15737;49.760;6.632;2023-04-06T13:50:02;11.10;93.00
28530;DHT22;15737;49.760;6.632;2023-04-06T13:52:28;10.60;94.00
28530;DHT22;15737;49.760;6.632;2023-04-06T13:54:54;10.10;94.60
28530;DHT22;15737;49.760;6.632;2023-04-06T13:57:20;9.60;97.00
28530;DHT22;15737;49.760;6.632;2023-04-06T13:59:45;9.30;98.10
28530;DHT22;15737;49.760;6.632;2023-04-06T14:02:11;9.10;99.90
28530;DHT22;15737;49.760;6.632;2023-04-06T14:04:37;8.90;99.90
28530;DHT22;15737;49.760;6.632;2023-04-06T14:07:03;8.90;99.90
28530;DHT22;15737;49.760;6.632;2023-04-06T14:09:29;8.80;99.90
28530;DHT22;15737;49.760;6.632;2023-04-06T14:11:55;8.90;99.90
28530;DHT22;15737;49.760;6.632;2023-04-06T14:14:22;8.90;99.90
28530;DHT22;15737;49.760;6.632;2023-04-06T14:16:47;9.00;99.90
28530;DHT22;15737;49.760;6.632;2023-04-06T14:19:16;9.10;99.90
28530;DHT22;15737;49.760;6.632;2023-04-06T14:21:45;9.40;99.90
28530;DHT22;15737;49.760;6.632;2023-04-06T14:24:11;9.40;99.90
28530;DHT22;15737;49.760;6.632;2023-04-06T14:26:38;9.40;99.90
28530;DHT22;15737;49.760;6.632;2023-04-06T14:29:05;9.40;99.90
28530;DHT22;15737;49.760;6.632;2023-04-06T14:31:31;9.30;99.90
28530;DHT22;15737;49.760;6.632;2023-04-06T14:33:58;9.10;99.90
28530;DHT22;15737;49.760;6.632;2023-04-06T14:36:25;8.80;99.90
28530;DHT22;15737;49.760;6.632;2023-04-06T14:38:58;8.80;99.90
28530;DHT22;15737;49.760;6.632;2023-04-06T14:41:24;8.70;99.90
28530;DHT22;15737;49.760;6.632;2023-04-06T14:43:58;8.90;99.90
28530;DHT22;15737;49.760;6.632;2023-04-06T14:46:24;8.80;99.90
28530;DHT22;15737;49.760;6.632;2023-04-06T14:48:50;8.80;99.90
28530;DHT22;15737;49.760;6.632;2023-04-06T14:51:19;8.70;99.90
28530;DHT22;15737;49.760;6.632;2023-04-06T14:53:45;8.60;99.90
28530;DHT22;15737;49.760;6.632;2023-04-06T14:56:10;8.50;99.90
28530;DHT22;15737;49.760;6.632;2023-04-06T14:58:36;8.50;99.90
28530;DHT22;15737;49.760;6.632;2023-04-06T15:01:02;8.60;99.90
28530;DHT22;15737;49.760;6.632;2023-04-06T15:03:28;8.70;99.90
28530;DHT22;15737;49.760;6.632;2023-04-06T15:05:57;8.70;99.90
28530;DHT22;15737;49.760;6.632;2023-04-06T15:08:23;8.80;99.90
28530;DHT22;15737;49.760;6.632;2023-04-06T15:10:50;8.80;99.90
28530;DHT22;15737;49.760;6.632;2023-04-06T15:13:16;8.50;99.90
28530;DHT22;15737;49.760;6.632;2023-04-06T15:15:42;8.30;99.90
28530;DHT22;15737;49.760;6.632;2023-04-06T15:18:08;8.10;99.90
28530;DHT22;15737;49.760;6.632;2023-04-06T15:20:33;8.00;99.90
28530;DHT22;15737;49.760;6.632;2023-04-06T15:23:01;7.80;99.90
28530;DHT22;15737;49.760;6.632;2023-04-06T15:25:27;7.80;99.90
28530;DHT22;15737;49.760;6.632;2023-04-06T15:27:53;7.70;99.90
28530;DHT22;15737;49.760;6.632;2023-04-06T15:30:19;7.70;99.90
28530;DHT22;15737;49.760;6.632;2023-04-06T15:32:53;7.70;99.90
28530;DHT22;15737;49.760;6.632;2023-04-06T15:35:20;7.70;99.90
28530;DHT22;15737;49.760;6.632;2023-04-06T15:37:45;7.70;99.90
28530;DHT22;15737;49.760;6.632;2023-04-06T15:40:11;7.70;99.90
28530;DHT22;15737;49.760;6.632;2023-04-06T15:42:39;7.80;99.90
28530;DHT22;15737;49.760;6.632;2023-04-06T15:45:05;7.90;99.90
28530;DHT22;15737;49.760;6.632;2023-04-06T15:47:31;7.90;99.90
28530;DHT22;15737;49.760;6.632;2023-04-06T15:49:57;8.00;99.90